sensor_id;sensor_type;location;lat;lon;timestamp;P1;durP1;ratioP1;P2;durP2;ratioP2
53040;SDS011;39326;42.650;23.248;2023-06-05T00:01:38;14.63;;;13.23;;
53040;SDS011;39326;42.650;23.248;2023-06-05T00:04:04;13.27;;;11.87;;
53040;SDS011;39326;42.650;23.248;2023-06-05T00:06:30;14.07;;;12.60;;
53040;SDS011;39326;42.650;23.248;2023-06-05T00:08:56;13.90;;;12.73;;
53040;SDS011;39326;42.650;23.248;2023-06-05T00:11:21;15.67;;;13.17;;
53040;SDS011;39326;42.650;23.248;2023-06-05T00:13:47;15.00;;;13.40;;
53040;SDS011;39326;42.650;23.248;2023-06-05T00:16:14;16.50;;;13.83;;
53040;SDS011;39326;42.650;23.248;2023-06-05T00:18:40;16.33;;;14.63;;
53040;SDS011;39326;42.650;23.248;2023-06-05T00:21:06;16.87;;;13.80;;
53040;SDS011;39326;42.650;23.248;2023-06-05T00:23:31;16.40;;;13.53;;
53040;SDS011;39326;42.650;23.248;2023-06-05T00:25:57;16.47;;;13.73;;
53040;SDS011;39326;42.650;23.248;2023-06-05T00:28:22;15.10;;;13.30;;
53040;SDS011;39326;42.650;23.248;2023-06-05T00:30:49;14.93;;;13.47;;
53040;SDS011;39326;42.650;23.248;2023-06-05T00:33:14;15.63;;;13.77;;
53040;SDS011;39326;42.650;23.248;2023-06-05T00:35:40;15.37;;;13.23;;
53040;SDS011;39326;42.650;23.248;2023-06-05T00:38:05;14.47;;;13.13;;
53040;SDS011;39326;42.650;23.248;2023-06-05T00:40:31;16.17;;;14.57;;
53040;SDS011;39326;42.650;23.248;2023-06-05T00:42:57;15.70;;;14.00;;
53040;SDS011;39326;42.650;23.248;2023-06-05T00:45:23;14.70;;;13.20;;
53040;SDS011;39326;42.650;23.248;2023-06-05T00:47:48;14.97;;;13.60;;
53040;SDS011;39326;42.650;23.248;2023-06-05T00:50:14;16.27;;;14.87;;
53040;SDS011;39326;42.650;23.248;2023-06-05T00:52:41;16.43;;;14.93;;
53040;SDS011;39326;42.650;23.248;2023-06-05T00:55:07;15.70;;;14.37;;
53040;SDS011;39326;42.650;23.248;2023-06-05T00:57:33;17.60;;;15.83;;
53040;SDS011;39326;42.650;23.248;2023-06-05T01:00:00;16.10;;;14.63;;
53040;SDS011;39326;42.650;23.248;2023-06-05T01:02:27;16.77;;;15.03;;
53040;SDS011;39326;42.650;23.248;2023-06-05T01:04:53;15.43;;;14.00;;
53040;SDS011;39326;42.650;23.248;2023-06-05T01:07:21;14.17;;;13.00;;
53040;SDS011;39326;42.650;23.248;2023-06-05T01:09:47;14.03;;;12.50;;
53040;SDS011;39326;42.650;23.248;2023-06-05T01:12:17;14.97;;;13.40;;
53040;SDS011;39326;42.650;23.248;2023-06-05T01:14:51;13.77;;;12.57;;
53040;SDS011;39326;42.650;23.248;2023-06-05T01:17:23;14.77;;;13.40;;
53040;SDS011;39326;42.650;23.248;2023-06-05T01:19:50;13.90;;;12.43;;
53040;SDS011;39326;42.650;23.248;2023-06-05T01:22:17;15.90;;;14.37;;
53040;SDS011;39326;42.650;23.248;2023-06-05T01:24:43;14.83;;;13.43;;
53040;SDS011;39326;42.650;23.248;2023-06-05T01:27:15;13.77;;;12.60;;
53040;SDS011;39326;42.650;23.248;2023-06-05T01:29:50;12.77;;;11.67;;
53040;SDS011;39326;42.650;23.248;2023-06-05T01:33:07;12.17;;;11.00;;
53040;SDS011;39326;42.650;23.248;2023-06-05T01:35:31;11.60;;;10.67;;
53040;SDS011;39326;42.650;23.248;2023-06-05T01:38:01;11.43;;;10.40;;
53040;SDS011;39326;42.650;23.248;2023-06-05T01:40:30;11.40;;;10.40;;
53040;SDS011;39326;42.650;23.248;2023-06-05T01:42:58;11.13;;;10.17;;
53040;SDS011;39326;42.650;23.248;2023-06-05T01:45:25;11.17;;;10.10;;
53040;SDS011;39326;42.650;23.248;2023-06-05T01:47:51;11.60;;;10.57;;
53040;SDS011;39326;42.650;23.248;2023-06-05T01:50:18;13.93;;;12.67;;
53040;SDS011;39326;42.650;23.248;2023-06-05T01:52:44;14.43;;;13.27;;
53040;SDS011;39326;42.650;23.248;2023-06-05T01:55:19;13.63;;;12.47;;
53040;SDS011;39326;42.650;23.248;2023-06-05T01:57:48;13.23;;;12.00;;
53040;SDS011;39326;42.650;23.248;2023-06-05T02:00:15;13.37;;;11.97;;
53040;SDS011;39326;42.650;23.248;2023-06-05T02:02:42;13.00;;;11.77;;
53040;SDS011;39326;42.650;23.248;2023-06-05T02:05:10;13.30;;;12.00;;
53040;SDS011;39326;42.650;23.248;2023-06-05T02:07:39;13.30;;;11.87;;
53040;SDS011;39326;42.650;23.248;2023-06-05T02:10:06;11.80;;;10.80;;
53040;SDS011;39326;42.650;23.248;2023-06-05T02:12:33;11.00;;;10.03;;
53040;SDS011;39326;42.650;23.248;2023-06-05T02:14:59;12.23;;;11.13;;
53040;SDS011;39326;42.650;23.248;2023-06-05T02:17:25;12.33;;;11.33;;
53040;SDS011;39326;42.650;23.248;2023-06-05T02:19:51;13.57;;;12.37;;
53040;SDS011;39326;42.650;23.248;2023-06-05T02:22:17;12.70;;;11.60;;
53040;SDS011;39326;42.650;23.248;2023-06-05T02:24:43;13.67;;;12.47;;
53040;SDS011;39326;42.650;23.248;2023-06-05T02:27:09;11.00;;;10.10;;
53040;SDS011;39326;42.650;23.248;2023-06-05T02:29:35;11.57;;;10.50;;
53040;SDS011;39326;42.650;23.248;2023-06-05T02:32:02;11.90;;;10.67;;
53040;SDS011;39326;42.650;23.248;2023-06-05T02:34:31;10.43;;;9.47;;
53040;SDS011;39326;42.650;23.248;2023-06-05T02:36:57;10.17;;;9.40;;
53040;SDS011;39326;42.650;23.248;2023-06-05T02:39:23;10.57;;;9.67;;
53040;SDS011;39326;42.650;23.248;2023-06-05T02:41:48;11.20;;;9.70;;
53040;SDS011;39326;42.650;23.248;2023-06-05T02:44:14;10.93;;;9.93;;
53040;SDS011;39326;42.650;23.248;2023-06-05T02:46:40;10.67;;;9.77;;
53040;SDS011;39326;42.650;23.248;2023-06-05T02:49:05;10.93;;;9.93;;
53040;SDS011;39326;42.650;23.248;2023-06-05T02:51:31;10.33;;;9.20;;
53040;SDS011;39326;42.650;23.248;2023-06-05T02:53:57;11.63;;;9.93;;
53040;SDS011;39326;42.650;23.248;2023-06-05T02:56:22;12.33;;;11.17;;
53040;SDS011;39326;42.650;23.248;2023-06-05T02:58:50;11.43;;;10.33;;
53040;SDS011;39326;42.650;23.248;2023-06-05T03:01:16;11.17;;;9.93;;
53040;SDS011;39326;42.650;23.248;2023-06-05T03:03:41;11.80;;;10.10;;
53040;SDS011;39326;42.650;23.248;2023-06-05T03:06:07;12.63;;;11.63;;
53040;SDS011;39326;42.650;23.248;2023-06-05T03:08:33;11.37;;;10.37;;
53040;SDS011;39326;42.650;23.248;2023-06-05T03:11:02;12.20;;;11.20;;
53040;SDS011;39326;42.650;23.248;2023-06-05T03:13:29;12.53;;;10.77;;
53040;SDS011;39326;42.650;23.248;2023-06-05T03:15:56;13.43;;;12.17;;
53040;SDS011;39326;42.650;23.248;2023-06-05T03:18:25;12.00;;;10.90;;
53040;SDS011;39326;42.650;23.248;2023-06-05T03:20:51;12.73;;;11.63;;
53040;SDS011;39326;42.650;23.248;2023-06-05T03:23:23;11.13;;;10.23;;
53040;SDS011;39326;42.650;23.248;2023-06-05T03:25:49;13.23;;;12.03;;
53040;SDS011;39326;42.650;23.248;2023-06-05T03:28:16;13.23;;;11.70;;
53040;SDS011;39326;42.650;23.248;2023-06-05T03:30:42;12.67;;;11.63;;
53040;SDS011;39326;42.650;23.248;2023-06-05T03:33:07;12.57;;;11.47;;
53040;SDS011;39326;42.650;23.248;2023-06-05T03:35:34;12.93;;;11.83;;
53040;SDS011;39326;42.650;23.248;2023-06-05T03:38:00;12.77;;;11.77;;
53040;SDS011;39326;42.650;23.248;2023-06-05T03:40:25;12.50;;;10.90;;
53040;SDS011;39326;42.650;23.248;2023-06-05T03:42:51;12.03;;;11.10;;
53040;SDS011;39326;42.650;23.248;2023-06-05T03:45:16;14.27;;;13.00;;
53040;SDS011;39326;42.650;23.248;2023-06-05T03:47:42;12.70;;;11.70;;
53040;SDS011;39326;42.650;23.248;2023-06-05T03:50:09;14.47;;;13.23;;
53040;SDS011;39326;42.650;23.248;2023-06-05T03:52:35;14.63;;;13.43;;
53040;SDS011;39326;42.650;23.248;2023-06-05T03:55:04;17.40;;;15.90;;
53040;SDS011;39326;42.650;23.248;2023-06-05T03:57:32;17.53;;;15.93;;
53040;SDS011;39326;42.650;23.248;2023-06-05T03:59:58;19.70;;;17.70;;
53040;SDS011;39326;42.650;23.248;2023-06-05T04:02:24;20.30;;;18.50;;
53040;SDS011;39326;42.650;23.248;2023-06-05T04:04:49;21.33;;;19.23;;
53040;SDS011;39326;42.650;23.248;2023-06-05T04:07:15;22.13;;;20.23;;
53040;SDS011;39326;42.650;23.248;2023-06-05T04:09:41;25.67;;;23.17;;
53040;SDS011;39326;42.650;23.248;2023-06-05T04:12:07;22.13;;;20.10;;
53040;SDS011;39326;42.650;23.248;2023-06-05T04:14:35;22.47;;;20.60;;
53040;SDS011;39326;42.650;23.248;2023-06-05T04:17:01;22.23;;;20.23;;
53040;SDS011;39326;42.650;23.248;2023-06-05T04:19:28;21.83;;;20.03;;
53040;SDS011;39326;42.650;23.248;2023-06-05T04:21:53;20.17;;;18.47;;
53040;SDS011;39326;42.650;23.248;2023-06-05T04:24:19;21.40;;;19.40;;
53040;SDS011;39326;42.650;23.248;2023-06-05T04:26:44;22.07;;;20.07;;
53040;SDS011;39326;42.650;23.248;2023-06-05T04:29:10;22.40;;;20.50;;
53040;SDS011;39326;42.650;23.248;2023-06-05T04:31:43;23.97;;;21.83;;
53040;SDS011;39326;42.650;23.248;2023-06-05T04:34:11;21.27;;;19.37;;
53040;SDS011;39326;42.650;23.248;2023-06-05T04:36:37;21.13;;;19.27;;
53040;SDS011;39326;42.650;23.248;2023-06-05T04:39:03;20.77;;;19.10;;
53040;SDS011;39326;42.650;23.248;2023-06-05T04:41:32;20.40;;;18.57;;
53040;SDS011;39326;42.650;23.248;2023-06-05T04:43:59;18.50;;;17.00;;
53040;SDS011;39326;42.650;23.248;2023-06-05T04:46:25;19.43;;;17.83;;
53040;SDS011;39326;42.650;23.248;2023-06-05T04:48:51;20.10;;;18.40;;
53040;SDS011;39326;42.650;23.248;2023-06-05T04:51:20;19.63;;;17.93;;
53040;SDS011;39326;42.650;23.248;2023-06-05T04:53:49;20.03;;;18.53;;
53040;SDS011;39326;42.650;23.248;2023-06-05T04:56:15;19.23;;;17.60;;
53040;SDS011;39326;42.650;23.248;2023-06-05T04:58:41;19.20;;;17.50;;
53040;SDS011;39326;42.650;23.248;2023-06-05T05:01:07;21.33;;;19.43;;
53040;SDS011;39326;42.650;23.248;2023-06-05T05:03:33;20.83;;;19.00;;
53040;SDS011;39326;42.650;23.248;2023-06-05T05:05:58;21.23;;;19.37;;
53040;SDS011;39326;42.650;23.248;2023-06-05T05:08:25;21.80;;;20.00;;
53040;SDS011;39326;42.650;23.248;2023-06-05T05:10:52;21.10;;;19.40;;
53040;SDS011;39326;42.650;23.248;2023-06-05T05:13:18;20.77;;;18.97;;
53040;SDS011;39326;42.650;23.248;2023-06-05T05:15:44;20.53;;;18.83;;
53040;SDS011;39326;42.650;23.248;2023-06-05T05:18:10;20.03;;;18.23;;
53040;SDS011;39326;42.650;23.248;2023-06-05T05:20:35;18.67;;;17.07;;
53040;SDS011;39326;42.650;23.248;2023-06-05T05:23:01;23.57;;;21.27;;
53040;SDS011;39326;42.650;23.248;2023-06-05T05:25:26;22.00;;;20.03;;
53040;SDS011;39326;42.650;23.248;2023-06-05T05:27:52;20.60;;;19.00;;
53040;SDS011;39326;42.650;23.248;2023-06-05T05:30:18;21.90;;;20.10;;
53040;SDS011;39326;42.650;23.248;2023-06-05T05:32:43;16.90;;;15.60;;
53040;SDS011;39326;42.650;23.248;2023-06-05T05:35:09;21.57;;;19.80;;
53040;SDS011;39326;42.650;23.248;2023-06-05T05:37:35;20.67;;;18.97;;
53040;SDS011;39326;42.650;23.248;2023-06-05T05:40:00;23.30;;;21.17;;
53040;SDS011;39326;42.650;23.248;2023-06-05T05:42:26;21.27;;;19.53;;
53040;SDS011;39326;42.650;23.248;2023-06-05T05:44:51;19.97;;;18.27;;
53040;SDS011;39326;42.650;23.248;2023-06-05T05:47:17;18.33;;;16.83;;
53040;SDS011;39326;42.650;23.248;2023-06-05T05:49:42;21.73;;;19.97;;
53040;SDS011;39326;42.650;23.248;2023-06-05T05:52:08;20.50;;;18.60;;
53040;SDS011;39326;42.650;23.248;2023-06-05T05:54:34;21.20;;;19.50;;
53040;SDS011;39326;42.650;23.248;2023-06-05T05:56:59;22.17;;;20.23;;
53040;SDS011;39326;42.650;23.248;2023-06-05T05:59:25;20.37;;;18.67;;
53040;SDS011;39326;42.650;23.248;2023-06-05T06:01:50;22.77;;;20.63;;
53040;SDS011;39326;42.650;23.248;2023-06-05T06:04:16;23.33;;;21.13;;
53040;SDS011;39326;42.650;23.248;2023-06-05T06:06:43;21.67;;;19.67;;
53040;SDS011;39326;42.650;23.248;2023-06-05T06:09:09;21.43;;;19.70;;
53040;SDS011;39326;42.650;23.248;2023-06-05T06:11:36;21.37;;;19.40;;
53040;SDS011;39326;42.650;23.248;2023-06-05T06:14:01;20.53;;;18.63;;
53040;SDS011;39326;42.650;23.248;2023-06-05T06:16:27;20.53;;;18.83;;
53040;SDS011;39326;42.650;23.248;2023-06-05T06:18:52;21.70;;;19.90;;
53040;SDS011;39326;42.650;23.248;2023-06-05T06:21:20;19.83;;;18.13;;
53040;SDS011;39326;42.650;23.248;2023-06-05T06:23:45;19.83;;;18.07;;
53040;SDS011;39326;42.650;23.248;2023-06-05T06:26:11;17.97;;;16.37;;
53040;SDS011;39326;42.650;23.248;2023-06-05T06:28:39;17.50;;;15.80;;
53040;SDS011;39326;42.650;23.248;2023-06-05T06:31:05;17.20;;;15.53;;
53040;SDS011;39326;42.650;23.248;2023-06-05T06:33:31;19.47;;;17.50;;
53040;SDS011;39326;42.650;23.248;2023-06-05T06:35:56;16.13;;;14.73;;
53040;SDS011;39326;42.650;23.248;2023-06-05T06:38:25;16.97;;;15.67;;
53040;SDS011;39326;42.650;23.248;2023-06-05T06:40:55;17.83;;;16.43;;
53040;SDS011;39326;42.650;23.248;2023-06-05T06:43:24;15.33;;;14.03;;
53040;SDS011;39326;42.650;23.248;2023-06-05T06:45:50;15.70;;;14.30;;
53040;SDS011;39326;42.650;23.248;2023-06-05T06:48:17;16.60;;;15.07;;
53040;SDS011;39326;42.650;23.248;2023-06-05T06:50:42;18.43;;;16.73;;
53040;SDS011;39326;42.650;23.248;2023-06-05T06:53:08;17.03;;;15.53;;
53040;SDS011;39326;42.650;23.248;2023-06-05T06:55:33;17.47;;;15.87;;
53040;SDS011;39326;42.650;23.248;2023-06-05T06:57:59;17.63;;;16.13;;
53040;SDS011;39326;42.650;23.248;2023-06-05T07:00:24;18.53;;;17.13;;
53040;SDS011;39326;42.650;23.248;2023-06-05T07:02:50;16.33;;;15.00;;
53040;SDS011;39326;42.650;23.248;2023-06-05T07:05:16;17.27;;;15.77;;
53040;SDS011;39326;42.650;23.248;2023-06-05T07:07:42;16.83;;;15.27;;
53040;SDS011;39326;42.650;23.248;2023-06-05T07:10:08;17.37;;;15.87;;
53040;SDS011;39326;42.650;23.248;2023-06-05T07:12:34;17.67;;;16.27;;
53040;SDS011;39326;42.650;23.248;2023-06-05T07:14:59;18.27;;;16.63;;
53040;SDS011;39326;42.650;23.248;2023-06-05T07:17:25;19.10;;;17.40;;
53040;SDS011;39326;42.650;23.248;2023-06-05T07:19:52;17.87;;;16.33;;
53040;SDS011;39326;42.650;23.248;2023-06-05T07:22:17;18.27;;;16.87;;
53040;SDS011;39326;42.650;23.248;2023-06-05T07:24:43;18.33;;;16.40;;
53040;SDS011;39326;42.650;23.248;2023-06-05T07:27:08;18.90;;;17.50;;
53040;SDS011;39326;42.650;23.248;2023-06-05T07:29:35;18.40;;;16.80;;
53040;SDS011;39326;42.650;23.248;2023-06-05T07:32:00;18.75;;;17.25;;
53040;SDS011;39326;42.650;23.248;2023-06-05T07:34:30;18.23;;;16.70;;
53040;SDS011;39326;42.650;23.248;2023-06-05T07:36:56;18.53;;;17.13;;
53040;SDS011;39326;42.650;23.248;2023-06-05T07:39:21;17.27;;;15.83;;
53040;SDS011;39326;42.650;23.248;2023-06-05T07:41:47;18.60;;;16.90;;
53040;SDS011;39326;42.650;23.248;2023-06-05T07:44:14;17.33;;;15.73;;
53040;SDS011;39326;42.650;23.248;2023-06-05T07:46:41;17.43;;;15.87;;
53040;SDS011;39326;42.650;23.248;2023-06-05T07:49:08;17.87;;;16.37;;
53040;SDS011;39326;42.650;23.248;2023-06-05T07:51:34;18.10;;;16.53;;
53040;SDS011;39326;42.650;23.248;2023-06-05T07:54:02;17.15;;;15.45;;
53040;SDS011;39326;42.650;23.248;2023-06-05T07:56:28;15.80;;;14.30;;
53040;SDS011;39326;42.650;23.248;2023-06-05T07:58:56;17.25;;;15.60;;
53040;SDS011;39326;42.650;23.248;2023-06-05T08:01:22;15.63;;;14.23;;
53040;SDS011;39326;42.650;23.248;2023-06-05T08:03:47;18.17;;;16.60;;
53040;SDS011;39326;42.650;23.248;2023-06-05T08:06:13;17.88;;;16.42;;
53040;SDS011;39326;42.650;23.248;2023-06-05T08:08:38;18.23;;;16.73;;
53040;SDS011;39326;42.650;23.248;2023-06-05T08:11:04;20.25;;;18.48;;
53040;SDS011;39326;42.650;23.248;2023-06-05T08:13:29;20.30;;;18.35;;
53040;SDS011;39326;42.650;23.248;2023-06-05T08:15:55;19.55;;;17.83;;
53040;SDS011;39326;42.650;23.248;2023-06-05T08:18:20;19.10;;;17.42;;
53040;SDS011;39326;42.650;23.248;2023-06-05T08:20:46;18.73;;;17.10;;
53040;SDS011;39326;42.650;23.248;2023-06-05T08:23:11;21.33;;;19.45;;
53040;SDS011;39326;42.650;23.248;2023-06-05T08:25:37;18.33;;;16.67;;
53040;SDS011;39326;42.650;23.248;2023-06-05T08:28:03;19.00;;;17.40;;
53040;SDS011;39326;42.650;23.248;2023-06-05T08:30:28;18.83;;;17.33;;
53040;SDS011;39326;42.650;23.248;2023-06-05T08:32:54;19.05;;;17.25;;
53040;SDS011;39326;42.650;23.248;2023-06-05T08:35:19;19.13;;;17.38;;
53040;SDS011;39326;42.650;23.248;2023-06-05T08:37:45;18.10;;;16.45;;
53040;SDS011;39326;42.650;23.248;2023-06-05T08:40:11;19.30;;;17.73;;
53040;SDS011;39326;42.650;23.248;2023-06-05T08:42:37;18.52;;;16.73;;
53040;SDS011;39326;42.650;23.248;2023-06-05T08:45:06;17.92;;;16.38;;
53040;SDS011;39326;42.650;23.248;2023-06-05T08:47:34;18.60;;;17.00;;
53040;SDS011;39326;42.650;23.248;2023-06-05T08:50:02;17.80;;;16.20;;
53040;SDS011;39326;42.650;23.248;2023-06-05T08:52:30;17.48;;;15.95;;
53040;SDS011;39326;42.650;23.248;2023-06-05T08:55:03;19.23;;;17.63;;
53040;SDS011;39326;42.650;23.248;2023-06-05T08:57:29;18.60;;;17.10;;
53040;SDS011;39326;42.650;23.248;2023-06-05T08:59:56;17.80;;;16.20;;
53040;SDS011;39326;42.650;23.248;2023-06-05T09:02:24;18.20;;;16.40;;
53040;SDS011;39326;42.650;23.248;2023-06-05T09:04:49;18.17;;;16.58;;
53040;SDS011;39326;42.650;23.248;2023-06-05T09:07:15;18.02;;;16.55;;
53040;SDS011;39326;42.650;23.248;2023-06-05T09:09:42;19.05;;;17.30;;
53040;SDS011;39326;42.650;23.248;2023-06-05T09:12:08;18.10;;;16.60;;
53040;SDS011;39326;42.650;23.248;2023-06-05T09:14:34;19.13;;;17.55;;
53040;SDS011;39326;42.650;23.248;2023-06-05T09:17:01;18.58;;;16.92;;
53040;SDS011;39326;42.650;23.248;2023-06-05T09:19:40;18.05;;;16.55;;
53040;SDS011;39326;42.650;23.248;2023-06-05T09:22:08;18.10;;;16.50;;
53040;SDS011;39326;42.650;23.248;2023-06-05T09:24:35;16.48;;;15.05;;
53040;SDS011;39326;42.650;23.248;2023-06-05T09:27:05;16.35;;;15.02;;
53040;SDS011;39326;42.650;23.248;2023-06-05T09:29:36;16.73;;;15.18;;
53040;SDS011;39326;42.650;23.248;2023-06-05T09:32:04;18.85;;;16.95;;
53040;SDS011;39326;42.650;23.248;2023-06-05T09:34:58;17.90;;;16.33;;
53040;SDS011;39326;42.650;23.248;2023-06-05T09:37:35;16.52;;;15.05;;
53040;SDS011;39326;42.650;23.248;2023-06-05T09:40:01;17.75;;;16.15;;
53040;SDS011;39326;42.650;23.248;2023-06-05T09:42:33;18.10;;;16.48;;
53040;SDS011;39326;42.650;23.248;2023-06-05T09:44:59;17.83;;;16.33;;
53040;SDS011;39326;42.650;23.248;2023-06-05T09:47:25;17.48;;;16.02;;
53040;SDS011;39326;42.650;23.248;2023-06-05T09:49:51;16.55;;;15.05;;
53040;SDS011;39326;42.650;23.248;2023-06-05T09:52:16;17.27;;;15.73;;
53040;SDS011;39326;42.650;23.248;2023-06-05T09:54:45;16.58;;;14.95;;
53040;SDS011;39326;42.650;23.248;2023-06-05T09:57:11;17.13;;;15.43;;
53040;SDS011;39326;42.650;23.248;2023-06-05T09:59:47;16.52;;;15.00;;
53040;SDS011;39326;42.650;23.248;2023-06-05T10:02:16;15.73;;;14.32;;
53040;SDS011;39326;42.650;23.248;2023-06-05T10:07:09;15.77;;;14.38;;
53040;SDS011;39326;42.650;23.248;2023-06-05T10:09:35;15.50;;;14.20;;
53040;SDS011;39326;42.650;23.248;2023-06-05T10:12:01;15.85;;;14.40;;
53040;SDS011;39326;42.650;23.248;2023-06-05T10:14:29;15.70;;;14.18;;
53040;SDS011;39326;42.650;23.248;2023-06-05T10:16:55;15.43;;;14.10;;
53040;SDS011;39326;42.650;23.248;2023-06-05T10:19:24;15.40;;;14.02;;
53040;SDS011;39326;42.650;23.248;2023-06-05T10:21:50;14.80;;;13.55;;
53040;SDS011;39326;42.650;23.248;2023-06-05T10:24:33;15.43;;;14.02;;
53040;SDS011;39326;42.650;23.248;2023-06-05T10:40:21;11.35;;;10.35;;
53040;SDS011;39326;42.650;23.248;2023-06-05T10:42:49;10.73;;;9.90;;
53040;SDS011;39326;42.650;23.248;2023-06-05T10:45:31;10.90;;;9.90;;
53040;SDS011;39326;42.650;23.248;2023-06-05T10:48:00;10.63;;;9.75;;
53040;SDS011;39326;42.650;23.248;2023-06-05T10:50:26;9.18;;;8.32;;
53040;SDS011;39326;42.650;23.248;2023-06-05T10:52:54;8.25;;;7.55;;
53040;SDS011;39326;42.650;23.248;2023-06-05T10:55:21;9.43;;;8.68;;
53040;SDS011;39326;42.650;23.248;2023-06-05T10:58:07;8.98;;;8.25;;
53040;SDS011;39326;42.650;23.248;2023-06-05T11:00:35;9.05;;;8.25;;
53040;SDS011;39326;42.650;23.248;2023-06-05T11:03:03;8.23;;;7.55;;
53040;SDS011;39326;42.650;23.248;2023-06-05T11:05:31;9.02;;;8.27;;
53040;SDS011;39326;42.650;23.248;2023-06-05T11:08:13;9.02;;;8.32;;
53040;SDS011;39326;42.650;23.248;2023-06-05T11:13:26;8.80;;;8.00;;
53040;SDS011;39326;42.650;23.248;2023-06-05T11:16:29;9.00;;;8.23;;
53040;SDS011;39326;42.650;23.248;2023-06-05T11:22:06;9.55;;;8.80;;
53040;SDS011;39326;42.650;23.248;2023-06-05T11:24:34;8.98;;;8.30;;
53040;SDS011;39326;42.650;23.248;2023-06-05T11:27:01;9.93;;;9.07;;
53040;SDS011;39326;42.650;23.248;2023-06-05T11:29:28;10.73;;;9.82;;
53040;SDS011;39326;42.650;23.248;2023-06-05T11:31:54;10.13;;;9.40;;
53040;SDS011;39326;42.650;23.248;2023-06-05T11:34:20;10.52;;;9.50;;
53040;SDS011;39326;42.650;23.248;2023-06-05T11:36:46;8.82;;;7.95;;
53040;SDS011;39326;42.650;23.248;2023-06-05T11:39:12;9.63;;;8.75;;
53040;SDS011;39326;42.650;23.248;2023-06-05T11:41:48;8.38;;;7.57;;
53040;SDS011;39326;42.650;23.248;2023-06-05T11:44:30;8.13;;;7.45;;
53040;SDS011;39326;42.650;23.248;2023-06-05T11:46:57;7.00;;;6.50;;
53040;SDS011;39326;42.650;23.248;2023-06-05T11:49:26;7.07;;;6.47;;
53040;SDS011;39326;42.650;23.248;2023-06-05T11:51:53;7.25;;;6.57;;
53040;SDS011;39326;42.650;23.248;2023-06-05T11:54:32;7.55;;;6.95;;
53040;SDS011;39326;42.650;23.248;2023-06-05T11:57:04;7.85;;;7.00;;
53040;SDS011;39326;42.650;23.248;2023-06-05T11:59:37;7.55;;;6.80;;
53040;SDS011;39326;42.650;23.248;2023-06-05T12:02:03;6.82;;;6.32;;
53040;SDS011;39326;42.650;23.248;2023-06-05T12:04:30;7.35;;;6.75;;
53040;SDS011;39326;42.650;23.248;2023-06-05T12:06:56;6.78;;;6.10;;
53040;SDS011;39326;42.650;23.248;2023-06-05T12:09:24;7.25;;;6.60;;
53040;SDS011;39326;42.650;23.248;2023-06-05T12:11:50;6.35;;;5.80;;
53040;SDS011;39326;42.650;23.248;2023-06-05T12:14:32;6.68;;;6.07;;
53040;SDS011;39326;42.650;23.248;2023-06-05T12:17:19;6.85;;;6.25;;
53040;SDS011;39326;42.650;23.248;2023-06-05T12:19:56;7.45;;;6.85;;
53040;SDS011;39326;42.650;23.248;2023-06-05T12:22:22;7.03;;;6.43;;
53040;SDS011;39326;42.650;23.248;2023-06-05T12:24:48;6.75;;;6.15;;
53040;SDS011;39326;42.650;23.248;2023-06-05T12:27:13;6.80;;;6.30;;
53040;SDS011;39326;42.650;23.248;2023-06-05T12:29:39;6.90;;;6.30;;
53040;SDS011;39326;42.650;23.248;2023-06-05T12:32:20;6.47;;;5.97;;
53040;SDS011;39326;42.650;23.248;2023-06-05T12:34:48;7.50;;;6.13;;
53040;SDS011;39326;42.650;23.248;2023-06-05T12:37:27;6.40;;;5.90;;
53040;SDS011;39326;42.650;23.248;2023-06-05T12:39:59;7.20;;;6.18;;
53040;SDS011;39326;42.650;23.248;2023-06-05T12:42:26;6.57;;;5.80;;
53040;SDS011;39326;42.650;23.248;2023-06-05T12:45:00;8.07;;;7.05;;
53040;SDS011;39326;42.650;23.248;2023-06-05T12:47:25;6.50;;;5.93;;
53040;SDS011;39326;42.650;23.248;2023-06-05T12:49:51;6.68;;;6.18;;
53040;SDS011;39326;42.650;23.248;2023-06-05T12:52:16;6.93;;;6.38;;
53040;SDS011;39326;42.650;23.248;2023-06-05T12:54:42;6.55;;;5.95;;
53040;SDS011;39326;42.650;23.248;2023-06-05T12:57:07;6.60;;;6.10;;
53040;SDS011;39326;42.650;23.248;2023-06-05T12:59:33;6.90;;;6.40;;
53040;SDS011;39326;42.650;23.248;2023-06-05T13:01:59;6.30;;;5.90;;
53040;SDS011;39326;42.650;23.248;2023-06-05T13:04:24;8.65;;;6.88;;
53040;SDS011;39326;42.650;23.248;2023-06-05T13:06:50;7.43;;;6.28;;
53040;SDS011;39326;42.650;23.248;2023-06-05T13:09:16;7.40;;;6.72;;
53040;SDS011;39326;42.650;23.248;2023-06-05T13:11:41;6.85;;;6.30;;
53040;SDS011;39326;42.650;23.248;2023-06-05T13:14:07;6.55;;;6.05;;
53040;SDS011;39326;42.650;23.248;2023-06-05T13:16:32;6.40;;;5.82;;
53040;SDS011;39326;42.650;23.248;2023-06-05T13:18:58;6.50;;;5.90;;
53040;SDS011;39326;42.650;23.248;2023-06-05T13:21:23;5.95;;;5.43;;
53040;SDS011;39326;42.650;23.248;2023-06-05T13:23:50;6.07;;;5.55;;
53040;SDS011;39326;42.650;23.248;2023-06-05T13:26:16;8.02;;;6.15;;
53040;SDS011;39326;42.650;23.248;2023-06-05T13:28:42;6.43;;;5.82;;
53040;SDS011;39326;42.650;23.248;2023-06-05T13:31:10;5.90;;;5.40;;
53040;SDS011;39326;42.650;23.248;2023-06-05T13:33:36;6.30;;;5.70;;
53040;SDS011;39326;42.650;23.248;2023-06-05T13:36:01;6.85;;;5.47;;
53040;SDS011;39326;42.650;23.248;2023-06-05T13:38:27;6.07;;;5.68;;
53040;SDS011;39326;42.650;23.248;2023-06-05T13:40:52;6.85;;;5.60;;
53040;SDS011;39326;42.650;23.248;2023-06-05T13:43:18;5.78;;;5.28;;
53040;SDS011;39326;42.650;23.248;2023-06-05T13:45:44;5.85;;;4.95;;
53040;SDS011;39326;42.650;23.248;2023-06-05T13:48:10;5.95;;;5.35;;
53040;SDS011;39326;42.650;23.248;2023-06-05T13:50:36;5.53;;;5.13;;
53040;SDS011;39326;42.650;23.248;2023-06-05T13:53:01;5.60;;;5.20;;
53040;SDS011;39326;42.650;23.248;2023-06-05T13:55:27;5.65;;;5.15;;
53040;SDS011;39326;42.650;23.248;2023-06-05T13:57:52;5.85;;;4.97;;
53040;SDS011;39326;42.650;23.248;2023-06-05T14:00:18;5.57;;;5.13;;
53040;SDS011;39326;42.650;23.248;2023-06-05T14:02:44;6.05;;;5.45;;
53040;SDS011;39326;42.650;23.248;2023-06-05T14:05:11;6.55;;;5.20;;
53040;SDS011;39326;42.650;23.248;2023-06-05T14:07:37;6.10;;;5.60;;
53040;SDS011;39326;42.650;23.248;2023-06-05T14:10:02;5.18;;;4.78;;
53040;SDS011;39326;42.650;23.248;2023-06-05T14:12:29;6.15;;;5.65;;
53040;SDS011;39326;42.650;23.248;2023-06-05T14:14:54;6.10;;;5.15;;
53040;SDS011;39326;42.650;23.248;2023-06-05T14:17:20;6.13;;;5.53;;
53040;SDS011;39326;42.650;23.248;2023-06-05T14:19:45;6.40;;;5.60;;
53040;SDS011;39326;42.650;23.248;2023-06-05T14:22:11;5.70;;;5.20;;
53040;SDS011;39326;42.650;23.248;2023-06-05T14:24:36;6.55;;;6.05;;
53040;SDS011;39326;42.650;23.248;2023-06-05T14:27:02;7.22;;;6.10;;
53040;SDS011;39326;42.650;23.248;2023-06-05T14:29:27;6.93;;;6.05;;
53040;SDS011;39326;42.650;23.248;2023-06-05T14:31:52;6.40;;;5.90;;
53040;SDS011;39326;42.650;23.248;2023-06-05T14:34:18;8.05;;;7.38;;
53040;SDS011;39326;42.650;23.248;2023-06-05T14:36:45;8.00;;;7.25;;
53040;SDS011;39326;42.650;23.248;2023-06-05T14:39:15;7.57;;;6.90;;